American Star — WDD7311 — position and weather

sailwx.info

Track history (hours):
 
Tides and Currents Weather Stations Pressure Air Temp Water Temp Dewpoint Dewpoint Depression Visibility Wind Speed Wind Dir Waves Ship Positions

American Star

Owner: American Cruise Lines, Inc, Delmar, DE. More information available from US FCC via Universal Licensing System and Coast Guard Vessel Documentation Center.

Last reported at 2015-Sep-02 10:34 UTC. Time now 2015-Sep-02 10:41 UTC.
Position N 41°26' W 070°49'.

Length 60 m; draft 2.1 m.

Type: Ship (hazmat cat C). MMSI: 367184740.

Date/timePositionNaut miles runAvg speedWind from/ knotsBaromVisibWave heightAir tempDewpointWater temp
2015-Sep-02 10:34N 41°26' W 070°49'1010.0
2015-Sep-02 09:34N 41°30' W 070°36'2 2.1
2015-Sep-02 08:29N 41°27' W 070°36'0 0.0
2015-Sep-02 07:33N 41°27' W 070°36'0 0.0
2015-Sep-02 06:28N 41°27' W 070°36'0 0.0
2015-Sep-02 05:26N 41°27' W 070°36'0 0.0
2015-Sep-02 04:33N 41°27' W 070°36'0 0.0
2015-Sep-02 03:30N 41°27' W 070°36'0 0.0
2015-Sep-02 02:29N 41°27' W 070°36'0 0.0
2015-Sep-02 01:30N 41°27' W 070°36'1 1.1
2015-Sep-02 00:33N 41°28' W 070°35'9 9.0
2015-Sep-01 23:33N 41°28' W 070°23'10 9.9
2015-Sep-01 22:33N 41°24' W 070°11'7 6.2
2015-Sep-01 21:29N 41°19' W 070°06'0 0.0
2015-Sep-01 20:29N 41°19' W 070°06'0 0.0
2015-Sep-01 19:29N 41°19' W 070°06'0 0.0
2015-Sep-01 18:32N 41°19' W 070°06'0 0.0
2015-Sep-01 17:29N 41°19' W 070°06'1 0.4
2015-Sep-01 14:04N 41°18' W 070°05'0 0.1
2015-Sep-01 13:32N 41°18' W 070°05'1 0.8
2015-Sep-01 12:33N 41°18' W 070°06'9 8.4
2015-Sep-01 11:32N 41°25' W 070°12'1110.4
2015-Sep-01 10:27N 41°28' W 070°26'7 1.2
2015-Sep-01 04:31N 41°27' W 070°36'0 0.0
2015-Sep-01 03:31N 41°27' W 070°36'0 0.0
2015-Aug-31 22:13N 41°27' W 070°36'0 0.0
2015-Aug-31 14:31N 41°27' W 070°36'0 0.0
2015-Aug-31 13:07N 41°27' W 070°36'29 0.7
2015-Aug-29 19:29N 41°36' W 071°13'3 3.5
2015-Aug-29 18:33N 41°38' W 071°16'6 6.3
2015-Aug-29 17:33N 41°43' W 071°21'6 0.8
2015-Aug-29 10:05N 41°49' W 071°24'0 0.0
2015-Aug-29 08:29N 41°49' W 071°24'0 0.0
2015-Aug-29 07:17N 41°49' W 071°24'0 0.0
2015-Aug-29 06:23N 41°49' W 071°24'0 0.0
2015-Aug-28 22:32N 41°49' W 071°24'9 9.1
2015-Aug-28 21:33N 41°41' W 071°19'2 0.7
2015-Aug-28 18:30N 41°40' W 071°16'0 0.0
2015-Aug-28 17:30N 41°40' W 071°16'0 0.0
2015-Aug-28 16:30N 41°40' W 071°16'0 0.0
2015-Aug-28 15:24N 41°40' W 071°16'2 2.9
2015-Aug-28 14:33N 41°37' W 071°17'9 8.9
2015-Aug-28 13:33N 41°29' W 071°20'0 0.1
2015-Aug-28 12:29N 41°29' W 071°20'0 0.0
2015-Aug-28 11:32N 41°29' W 071°20'0 0.0
2015-Aug-28 10:32N 41°29' W 071°20'0 0.0
2015-Aug-28 09:32N 41°29' W 071°20'0 0.0
2015-Aug-28 08:32N 41°29' W 071°20'0 0.0
2015-Aug-28 07:32N 41°29' W 071°20'0 0.0
2015-Aug-28 06:32N 41°29' W 071°20'0 0.0
2015-Aug-28 05:32N 41°29' W 071°20'0 0.0
2015-Aug-28 04:32N 41°29' W 071°20'0 0.0
2015-Aug-28 03:32N 41°29' W 071°20'0 0.0
2015-Aug-28 02:29N 41°29' W 071°20'0 0.0
2015-Aug-28 01:32N 41°29' W 071°20'0 0.0
2015-Aug-28 00:26N 41°29' W 071°20'0 0.0
2015-Aug-27 23:29N 41°29' W 071°20'0 0.0
2015-Aug-27 22:32N 41°29' W 071°20'0 0.0
2015-Aug-27 21:23N 41°29' W 071°20'0 0.0
2015-Aug-27 20:29N 41°29' W 071°20'0 0.0
2015-Aug-27 19:17N 41°29' W 071°20'0 0.0
2015-Aug-27 18:26N 41°29' W 071°20'0 0.1
2015-Aug-27 12:34N 41°29' W 071°21'9 8.7
2015-Aug-27 11:34N 41°22' W 071°27'10 9.7
2015-Aug-27 10:34N 41°14' W 071°35'3 3.0
2015-Aug-27 09:31N 41°11' W 071°35'0 0.0
2015-Aug-27 08:31N 41°11' W 071°35'0 0.0
2015-Aug-27 07:31N 41°11' W 071°35'0 0.0
2015-Aug-27 06:31N 41°11' W 071°35'0 0.0
2015-Aug-27 05:31N 41°11' W 071°35'0 0.0
2015-Aug-27 04:31N 41°11' W 071°35'0 0.0
2015-Aug-27 03:31N 41°11' W 071°35'0 0.0
2015-Aug-27 02:31N 41°11' W 071°35'0 0.0
2015-Aug-27 01:31N 41°11' W 071°35'0 0.0
2015-Aug-27 00:31N 41°11' W 071°35'0 0.0
2015-Aug-26 23:31N 41°11' W 071°35'0 0.0
2015-Aug-26 22:31N 41°11' W 071°35'0 0.0
2015-Aug-26 21:31N 41°11' W 071°35'0 0.0
2015-Aug-26 20:33N 41°11' W 071°35'0 0.0
2015-Aug-26 19:33N 41°11' W 071°35'0 0.0
2015-Aug-26 18:33N 41°11' W 071°35'0 0.0
2015-Aug-26 17:33N 41°11' W 071°35'0 0.0
2015-Aug-26 16:33N 41°11' W 071°35'1 0.7
2015-Aug-26 15:33N 41°12' W 071°35'6 5.7
2015-Aug-26 14:33N 41°16' W 071°31'8 8.1
2015-Aug-26 13:33N 41°20' W 071°21'8 8.3
2015-Aug-26 12:33N 41°23' W 071°11'9 9.1
2015-Aug-26 11:33N 41°27' W 071°00'9 8.9
2015-Aug-26 10:30N 41°26' W 070°48'9 8.9
2015-Aug-26 09:32N 41°29' W 070°37'2 0.3
2015-Aug-26 00:26N 41°27' W 070°36'0 0.0
2015-Aug-25 23:29N 41°27' W 070°36'0 0.0
2015-Aug-25 22:20N 41°27' W 070°36'0 0.0
2015-Aug-25 19:32N 41°27' W 070°36'0 0.0
2015-Aug-25 18:32N 41°27' W 070°36'0 0.0
2015-Aug-25 17:32N 41°27' W 070°36'0 0.0
2015-Aug-25 16:32N 41°27' W 070°36'0 0.0
2015-Aug-25 15:29N 41°27' W 070°36'0 0.0
2015-Aug-25 14:26N 41°27' W 070°36'0 0.0
2015-Aug-25 13:05N 41°27' W 070°36'0 0.0
2015-Aug-25 12:32N 41°27' W 070°36'0 0.0
2015-Aug-25 11:32N 41°27' W 070°36'0 0.0
2015-Aug-25 09:26N 41°27' W 070°36'0 0.0
2015-Aug-25 04:08N 41°27' W 070°36'0 0.0
2015-Aug-25 03:29N 41°27' W 070°36'0 0.0
2015-Aug-25 02:32N 41°27' W 070°36'0 0.0
2015-Aug-25 00:32N 41°27' W 070°36'4 3.7
2015-Aug-24 23:33N 41°28' W 070°31'9 9.4
2015-Aug-24 22:33N 41°27' W 070°19'1010.3
2015-Aug-24 21:33N 41°21' W 070°08'4 4.3
2015-Aug-24 20:32N 41°17' W 070°05'0 0.0
2015-Aug-24 19:32N 41°17' W 070°05'0 0.0
2015-Aug-24 18:20N 41°17' W 070°05'0 0.0
2015-Aug-24 12:30N 41°17' W 070°05'18 8.0
2015-Aug-24 10:11N 41°28' W 070°25'710.5
2015-Aug-24 09:31N 41°29' W 070°34'1210.6
2015-Aug-24 08:22N 41°26' W 070°50'  
Track history (hours):
 
Tides and Currents Weather Stations Pressure Air Temp Water Temp Dewpoint Dewpoint Depression Visibility Wind Speed Wind Dir Waves Ship Positions

American Star

Owner: American Cruise Lines, Inc, Delmar, DE. More information available from US FCC via Universal Licensing System and Coast Guard Vessel Documentation Center.

Last reported at 2015-Sep-02 10:34 UTC. Time now 2015-Sep-02 10:41 UTC.
Position N 41°26' W 070°49'.

Length 60 m; draft 2.1 m.

Type: Ship (hazmat cat C). MMSI: 367184740.

Date/timePositionNaut miles runAvg speedWind from/ knotsBaromVisibWave heightAir tempDewpointWater temp
2015-Sep-02 10:34N 41°26' W 070°49'1010.0
2015-Sep-02 09:34N 41°30' W 070°36'2 2.1
2015-Sep-02 08:29N 41°27' W 070°36'0 0.0
2015-Sep-02 07:33N 41°27' W 070°36'0 0.0
2015-Sep-02 06:28N 41°27' W 070°36'0 0.0
2015-Sep-02 05:26N 41°27' W 070°36'0 0.0
2015-Sep-02 04:33N 41°27' W 070°36'0 0.0
2015-Sep-02 03:30N 41°27' W 070°36'0 0.0
2015-Sep-02 02:29N 41°27' W 070°36'0 0.0
2015-Sep-02 01:30N 41°27' W 070°36'1 1.1
2015-Sep-02 00:33N 41°28' W 070°35'9 9.0
2015-Sep-01 23:33N 41°28' W 070°23'10 9.9
2015-Sep-01 22:33N 41°24' W 070°11'7 6.2
2015-Sep-01 21:29N 41°19' W 070°06'0 0.0
2015-Sep-01 20:29N 41°19' W 070°06'0 0.0
2015-Sep-01 19:29N 41°19' W 070°06'0 0.0
2015-Sep-01 18:32N 41°19' W 070°06'0 0.0
2015-Sep-01 17:29N 41°19' W 070°06'1 0.4
2015-Sep-01 14:04N 41°18' W 070°05'0 0.1
2015-Sep-01 13:32N 41°18' W 070°05'1 0.8
2015-Sep-01 12:33N 41°18' W 070°06'9 8.4
2015-Sep-01 11:32N 41°25' W 070°12'1110.4
2015-Sep-01 10:27N 41°28' W 070°26'7 1.2
2015-Sep-01 04:31N 41°27' W 070°36'0 0.0
2015-Sep-01 03:31N 41°27' W 070°36'0 0.0
2015-Aug-31 22:13N 41°27' W 070°36'0 0.0
2015-Aug-31 14:31N 41°27' W 070°36'0 0.0
2015-Aug-31 13:07N 41°27' W 070°36'29 0.7
2015-Aug-29 19:29N 41°36' W 071°13'3 3.5
2015-Aug-29 18:33N 41°38' W 071°16'6 6.3
2015-Aug-29 17:33N 41°43' W 071°21'6 0.8
2015-Aug-29 10:05N 41°49' W 071°24'0 0.0
2015-Aug-29 08:29N 41°49' W 071°24'0 0.0
2015-Aug-29 07:17N 41°49' W 071°24'0 0.0
2015-Aug-29 06:23N 41°49' W 071°24'0 0.0
2015-Aug-28 22:32N 41°49' W 071°24'9 9.1
2015-Aug-28 21:33N 41°41' W 071°19'2 0.7
2015-Aug-28 18:30N 41°40' W 071°16'0 0.0
2015-Aug-28 17:30N 41°40' W 071°16'0 0.0
2015-Aug-28 16:30N 41°40' W 071°16'0 0.0
2015-Aug-28 15:24N 41°40' W 071°16'2 2.9
2015-Aug-28 14:33N 41°37' W 071°17'9 8.9
2015-Aug-28 13:33N 41°29' W 071°20'0 0.1
2015-Aug-28 12:29N 41°29' W 071°20'0 0.0
2015-Aug-28 11:32N 41°29' W 071°20'0 0.0
2015-Aug-28 10:32N 41°29' W 071°20'0 0.0
2015-Aug-28 09:32N 41°29' W 071°20'0 0.0
2015-Aug-28 08:32N 41°29' W 071°20'0 0.0
2015-Aug-28 07:32N 41°29' W 071°20'0 0.0
2015-Aug-28 06:32N 41°29' W 071°20'0 0.0
2015-Aug-28 05:32N 41°29' W 071°20'0 0.0
2015-Aug-28 04:32N 41°29' W 071°20'0 0.0
2015-Aug-28 03:32N 41°29' W 071°20'0 0.0
2015-Aug-28 02:29N 41°29' W 071°20'0 0.0
2015-Aug-28 01:32N 41°29' W 071°20'0 0.0
2015-Aug-28 00:26N 41°29' W 071°20'0 0.0
2015-Aug-27 23:29N 41°29' W 071°20'0 0.0
2015-Aug-27 22:32N 41°29' W 071°20'0 0.0
2015-Aug-27 21:23N 41°29' W 071°20'0 0.0
2015-Aug-27 20:29N 41°29' W 071°20'0 0.0
2015-Aug-27 19:17N 41°29' W 071°20'0 0.0
2015-Aug-27 18:26N 41°29' W 071°20'0 0.1
2015-Aug-27 12:34N 41°29' W 071°21'9 8.7
2015-Aug-27 11:34N 41°22' W 071°27'10 9.7
2015-Aug-27 10:34N 41°14' W 071°35'3 3.0
2015-Aug-27 09:31N 41°11' W 071°35'0 0.0
2015-Aug-27 08:31N 41°11' W 071°35'0 0.0
2015-Aug-27 07:31N 41°11' W 071°35'0 0.0
2015-Aug-27 06:31N 41°11' W 071°35'0 0.0
2015-Aug-27 05:31N 41°11' W 071°35'0 0.0
2015-Aug-27 04:31N 41°11' W 071°35'0 0.0
2015-Aug-27 03:31N 41°11' W 071°35'0 0.0
2015-Aug-27 02:31N 41°11' W 071°35'0 0.0
2015-Aug-27 01:31N 41°11' W 071°35'0 0.0
2015-Aug-27 00:31N 41°11' W 071°35'0 0.0
2015-Aug-26 23:31N 41°11' W 071°35'0 0.0
2015-Aug-26 22:31N 41°11' W 071°35'0 0.0
2015-Aug-26 21:31N 41°11' W 071°35'0 0.0
2015-Aug-26 20:33N 41°11' W 071°35'0 0.0
2015-Aug-26 19:33N 41°11' W 071°35'0 0.0
2015-Aug-26 18:33N 41°11' W 071°35'0 0.0
2015-Aug-26 17:33N 41°11' W 071°35'0 0.0
2015-Aug-26 16:33N 41°11' W 071°35'1 0.7
2015-Aug-26 15:33N 41°12' W 071°35'6 5.7
2015-Aug-26 14:33N 41°16' W 071°31'8 8.1
2015-Aug-26 13:33N 41°20' W 071°21'8 8.3
2015-Aug-26 12:33N 41°23' W 071°11'9 9.1
2015-Aug-26 11:33N 41°27' W 071°00'9 8.9
2015-Aug-26 10:30N 41°26' W 070°48'9 8.9
2015-Aug-26 09:32N 41°29' W 070°37'2 0.3
2015-Aug-26 00:26N 41°27' W 070°36'0 0.0
2015-Aug-25 23:29N 41°27' W 070°36'0 0.0
2015-Aug-25 22:20N 41°27' W 070°36'0 0.0
2015-Aug-25 19:32N 41°27' W 070°36'0 0.0
2015-Aug-25 18:32N 41°27' W 070°36'0 0.0
2015-Aug-25 17:32N 41°27' W 070°36'0 0.0
2015-Aug-25 16:32N 41°27' W 070°36'0 0.0
2015-Aug-25 15:29N 41°27' W 070°36'0 0.0
2015-Aug-25 14:26N 41°27' W 070°36'0 0.0
2015-Aug-25 13:05N 41°27' W 070°36'0 0.0
2015-Aug-25 12:32N 41°27' W 070°36'0 0.0
2015-Aug-25 11:32N 41°27' W 070°36'0 0.0
2015-Aug-25 09:26N 41°27' W 070°36'0 0.0
2015-Aug-25 04:08N 41°27' W 070°36'0 0.0
2015-Aug-25 03:29N 41°27' W 070°36'0 0.0
2015-Aug-25 02:32N 41°27' W 070°36'0 0.0
2015-Aug-25 00:32N 41°27' W 070°36'4 3.7
2015-Aug-24 23:33N 41°28' W 070°31'9 9.4
2015-Aug-24 22:33N 41°27' W 070°19'1010.3
2015-Aug-24 21:33N 41°21' W 070°08'4 4.3
2015-Aug-24 20:32N 41°17' W 070°05'0 0.0
2015-Aug-24 19:32N 41°17' W 070°05'0 0.0
2015-Aug-24 18:20N 41°17' W 070°05'0 0.0
2015-Aug-24 12:30N 41°17' W 070°05'18 8.0
2015-Aug-24 10:11N 41°28' W 070°25'710.5
2015-Aug-24 09:31N 41°29' W 070°34'1210.6
2015-Aug-24 08:22N 41°26' W 070°50'  

Dump ship's entire track history